sensor_id;sensor_type;location;lat;lon;timestamp;P1;durP1;ratioP1;P2;durP2;ratioP2
27491;SDS011;14927;51.210;6.838;2023-03-14T00:02:05;7.57;;;1.35;;
27491;SDS011;14927;51.210;6.838;2023-03-14T00:04:50;5.90;;;1.75;;
27491;SDS011;14927;51.210;6.838;2023-03-14T00:07:40;4.10;;;0.90;;
27491;SDS011;14927;51.210;6.838;2023-03-14T00:10:24;7.78;;;1.38;;
27491;SDS011;14927;51.210;6.838;2023-03-14T00:13:09;5.20;;;1.45;;
27491;SDS011;14927;51.210;6.838;2023-03-14T00:15:54;8.68;;;1.55;;
27491;SDS011;14927;51.210;6.838;2023-03-14T00:18:39;6.22;;;1.55;;
27491;SDS011;14927;51.210;6.838;2023-03-14T00:21:23;6.63;;;1.58;;
27491;SDS011;14927;51.210;6.838;2023-03-14T00:24:08;9.68;;;2.17;;
27491;SDS011;14927;51.210;6.838;2023-03-14T00:26:53;8.38;;;1.52;;
27491;SDS011;14927;51.210;6.838;2023-03-14T00:29:38;5.90;;;1.60;;
27491;SDS011;14927;51.210;6.838;2023-03-14T00:32:22;5.70;;;1.40;;
27491;SDS011;14927;51.210;6.838;2023-03-14T00:35:07;9.48;;;1.65;;
27491;SDS011;14927;51.210;6.838;2023-03-14T00:37:52;5.85;;;1.67;;
27491;SDS011;14927;51.210;6.838;2023-03-14T00:40:38;7.32;;;1.75;;
27491;SDS011;14927;51.210;6.838;2023-03-14T00:43:24;8.85;;;1.48;;
27491;SDS011;14927;51.210;6.838;2023-03-14T00:46:08;7.72;;;1.95;;
27491;SDS011;14927;51.210;6.838;2023-03-14T00:48:54;7.13;;;1.25;;
27491;SDS011;14927;51.210;6.838;2023-03-14T00:51:39;7.95;;;1.27;;
27491;SDS011;14927;51.210;6.838;2023-03-14T00:54:23;6.03;;;1.30;;
27491;SDS011;14927;51.210;6.838;2023-03-14T00:57:08;6.63;;;1.33;;
27491;SDS011;14927;51.210;6.838;2023-03-14T00:59:52;3.85;;;0.93;;
27491;SDS011;14927;51.210;6.838;2023-03-14T01:02:37;2.67;;;1.02;;
27491;SDS011;14927;51.210;6.838;2023-03-14T01:05:22;4.32;;;0.93;;
27491;SDS011;14927;51.210;6.838;2023-03-14T01:08:07;4.70;;;0.90;;
27491;SDS011;14927;51.210;6.838;2023-03-14T01:10:51;3.88;;;0.85;;
27491;SDS011;14927;51.210;6.838;2023-03-14T01:13:36;3.72;;;1.13;;
27491;SDS011;14927;51.210;6.838;2023-03-14T01:16:22;4.72;;;0.73;;
27491;SDS011;14927;51.210;6.838;2023-03-14T01:19:09;4.18;;;0.63;;
27491;SDS011;14927;51.210;6.838;2023-03-14T01:21:55;3.70;;;0.90;;
27491;SDS011;14927;51.210;6.838;2023-03-14T01:24:39;4.50;;;0.90;;
27491;SDS011;14927;51.210;6.838;2023-03-14T01:27:24;6.80;;;1.25;;
27491;SDS011;14927;51.210;6.838;2023-03-14T01:30:09;3.17;;;0.70;;
27491;SDS011;14927;51.210;6.838;2023-03-14T01:32:55;6.25;;;1.05;;
27491;SDS011;14927;51.210;6.838;2023-03-14T01:35:40;4.95;;;1.52;;
27491;SDS011;14927;51.210;6.838;2023-03-14T01:38:25;3.63;;;1.17;;
27491;SDS011;14927;51.210;6.838;2023-03-14T01:41:12;8.80;;;1.15;;
27491;SDS011;14927;51.210;6.838;2023-03-14T01:44:10;6.45;;;1.48;;
27491;SDS011;14927;51.210;6.838;2023-03-14T01:46:56;6.63;;;1.55;;
27491;SDS011;14927;51.210;6.838;2023-03-14T01:49:40;4.00;;;0.90;;
27491;SDS011;14927;51.210;6.838;2023-03-14T01:52:31;5.53;;;1.05;;
27491;SDS011;14927;51.210;6.838;2023-03-14T01:55:21;8.65;;;1.60;;
27491;SDS011;14927;51.210;6.838;2023-03-14T01:58:08;7.15;;;1.23;;
27491;SDS011;14927;51.210;6.838;2023-03-14T02:00:55;8.52;;;1.50;;
27491;SDS011;14927;51.210;6.838;2023-03-14T02:04:01;8.30;;;1.60;;
27491;SDS011;14927;51.210;6.838;2023-03-14T02:06:51;5.65;;;1.00;;
27491;SDS011;14927;51.210;6.838;2023-03-14T02:10:07;4.55;;;1.15;;
27491;SDS011;14927;51.210;6.838;2023-03-14T02:12:53;7.85;;;1.70;;
27491;SDS011;14927;51.210;6.838;2023-03-14T02:15:40;6.07;;;1.23;;
27491;SDS011;14927;51.210;6.838;2023-03-14T02:18:26;5.40;;;1.23;;
27491;SDS011;14927;51.210;6.838;2023-03-14T02:21:17;11.77;;;2.00;;
27491;SDS011;14927;51.210;6.838;2023-03-14T02:24:42;9.55;;;1.75;;
27491;SDS011;14927;51.210;6.838;2023-03-14T02:27:34;5.95;;;1.25;;
27491;SDS011;14927;51.210;6.838;2023-03-14T02:30:27;5.82;;;1.25;;
27491;SDS011;14927;51.210;6.838;2023-03-14T02:33:16;5.18;;;1.15;;
27491;SDS011;14927;51.210;6.838;2023-03-14T02:36:04;7.18;;;1.20;;
27491;SDS011;14927;51.210;6.838;2023-03-14T02:38:55;4.20;;;0.98;;
27491;SDS011;14927;51.210;6.838;2023-03-14T02:42:08;5.88;;;0.90;;
27491;SDS011;14927;51.210;6.838;2023-03-14T02:44:54;7.78;;;1.20;;
27491;SDS011;14927;51.210;6.838;2023-03-14T02:48:01;5.03;;;1.15;;
27491;SDS011;14927;51.210;6.838;2023-03-14T02:50:52;7.60;;;1.55;;
27491;SDS011;14927;51.210;6.838;2023-03-14T02:53:40;3.60;;;0.82;;
27491;SDS011;14927;51.210;6.838;2023-03-14T02:56:26;8.32;;;1.20;;
27491;SDS011;14927;51.210;6.838;2023-03-14T02:59:11;7.03;;;0.90;;
27491;SDS011;14927;51.210;6.838;2023-03-14T03:01:55;9.30;;;1.42;;
27491;SDS011;14927;51.210;6.838;2023-03-14T03:04:40;3.85;;;0.82;;
27491;SDS011;14927;51.210;6.838;2023-03-14T03:07:25;8.63;;;1.20;;
27491;SDS011;14927;51.210;6.838;2023-03-14T03:10:09;7.35;;;1.65;;
27491;SDS011;14927;51.210;6.838;2023-03-14T03:12:55;3.67;;;0.93;;
27491;SDS011;14927;51.210;6.838;2023-03-14T03:15:39;4.57;;;1.55;;
27491;SDS011;14927;51.210;6.838;2023-03-14T03:18:24;5.80;;;2.10;;
27491;SDS011;14927;51.210;6.838;2023-03-14T03:21:09;5.80;;;1.52;;
27491;SDS011;14927;51.210;6.838;2023-03-14T03:23:53;6.93;;;1.65;;
27491;SDS011;14927;51.210;6.838;2023-03-14T03:26:38;7.25;;;1.40;;
27491;SDS011;14927;51.210;6.838;2023-03-14T03:29:23;4.15;;;0.88;;
27491;SDS011;14927;51.210;6.838;2023-03-14T03:32:07;6.97;;;0.90;;
27491;SDS011;14927;51.210;6.838;2023-03-14T03:34:52;4.25;;;1.05;;
27491;SDS011;14927;51.210;6.838;2023-03-14T03:37:37;4.57;;;0.80;;
27491;SDS011;14927;51.210;6.838;2023-03-14T03:40:22;6.05;;;0.90;;
27491;SDS011;14927;51.210;6.838;2023-03-14T03:43:07;7.00;;;1.85;;
27491;SDS011;14927;51.210;6.838;2023-03-14T03:45:51;6.18;;;1.13;;
27491;SDS011;14927;51.210;6.838;2023-03-14T03:48:36;6.88;;;1.20;;
27491;SDS011;14927;51.210;6.838;2023-03-14T03:51:21;7.50;;;1.48;;
27491;SDS011;14927;51.210;6.838;2023-03-14T03:54:05;10.35;;;1.65;;
27491;SDS011;14927;51.210;6.838;2023-03-14T03:56:50;8.80;;;1.45;;
27491;SDS011;14927;51.210;6.838;2023-03-14T03:59:35;7.82;;;1.42;;
27491;SDS011;14927;51.210;6.838;2023-03-14T04:02:20;7.00;;;1.45;;
27491;SDS011;14927;51.210;6.838;2023-03-14T04:05:05;9.15;;;1.85;;
27491;SDS011;14927;51.210;6.838;2023-03-14T04:07:50;9.02;;;2.17;;
27491;SDS011;14927;51.210;6.838;2023-03-14T04:10:43;8.45;;;1.70;;
27491;SDS011;14927;51.210;6.838;2023-03-14T04:13:40;8.48;;;2.00;;
27491;SDS011;14927;51.210;6.838;2023-03-14T04:16:46;6.03;;;1.33;;
27491;SDS011;14927;51.210;6.838;2023-03-14T04:19:31;11.27;;;2.20;;
27491;SDS011;14927;51.210;6.838;2023-03-14T04:22:15;7.93;;;1.80;;
27491;SDS011;14927;51.210;6.838;2023-03-14T04:25:00;8.07;;;1.45;;
27491;SDS011;14927;51.210;6.838;2023-03-14T04:27:50;6.53;;;1.35;;
27491;SDS011;14927;51.210;6.838;2023-03-14T04:30:44;6.50;;;1.15;;
27491;SDS011;14927;51.210;6.838;2023-03-14T04:33:32;9.48;;;1.48;;
27491;SDS011;14927;51.210;6.838;2023-03-14T04:36:27;6.22;;;1.17;;
27491;SDS011;14927;51.210;6.838;2023-03-14T04:39:29;4.68;;;1.00;;
27491;SDS011;14927;51.210;6.838;2023-03-14T04:42:36;3.88;;;1.05;;
27491;SDS011;14927;51.210;6.838;2023-03-14T04:45:25;5.75;;;1.40;;
27491;SDS011;14927;51.210;6.838;2023-03-14T04:48:14;6.25;;;1.30;;
27491;SDS011;14927;51.210;6.838;2023-03-14T04:51:04;7.38;;;1.30;;
27491;SDS011;14927;51.210;6.838;2023-03-14T04:54:05;4.03;;;1.08;;
27491;SDS011;14927;51.210;6.838;2023-03-14T04:57:03;7.07;;;1.15;;
27491;SDS011;14927;51.210;6.838;2023-03-14T04:59:49;6.47;;;1.15;;
27491;SDS011;14927;51.210;6.838;2023-03-14T05:02:34;5.03;;;1.00;;
27491;SDS011;14927;51.210;6.838;2023-03-14T05:05:19;4.25;;;1.08;;
27491;SDS011;14927;51.210;6.838;2023-03-14T05:08:04;4.28;;;0.90;;
27491;SDS011;14927;51.210;6.838;2023-03-14T05:10:53;3.10;;;1.02;;
27491;SDS011;14927;51.210;6.838;2023-03-14T05:13:39;5.00;;;0.90;;
27491;SDS011;14927;51.210;6.838;2023-03-14T05:16:24;3.92;;;0.73;;
27491;SDS011;14927;51.210;6.838;2023-03-14T05:19:09;3.47;;;0.93;;
27491;SDS011;14927;51.210;6.838;2023-03-14T05:21:55;1.60;;;0.50;;
27491;SDS011;14927;51.210;6.838;2023-03-14T05:24:40;4.35;;;0.77;;
27491;SDS011;14927;51.210;6.838;2023-03-14T05:27:24;3.05;;;0.68;;
27491;SDS011;14927;51.210;6.838;2023-03-14T05:30:09;3.80;;;0.77;;
27491;SDS011;14927;51.210;6.838;2023-03-14T05:32:54;4.15;;;1.08;;
27491;SDS011;14927;51.210;6.838;2023-03-14T05:35:39;3.25;;;0.90;;
27491;SDS011;14927;51.210;6.838;2023-03-14T05:38:24;1.60;;;0.38;;
27491;SDS011;14927;51.210;6.838;2023-03-14T05:41:08;2.05;;;0.50;;
27491;SDS011;14927;51.210;6.838;2023-03-14T05:43:53;2.75;;;0.47;;
27491;SDS011;14927;51.210;6.838;2023-03-14T05:46:38;3.17;;;0.60;;
27491;SDS011;14927;51.210;6.838;2023-03-14T05:49:22;3.20;;;1.02;;
27491;SDS011;14927;51.210;6.838;2023-03-14T05:52:07;0.77;;;0.40;;
27491;SDS011;14927;51.210;6.838;2023-03-14T05:54:52;2.25;;;0.40;;
27491;SDS011;14927;51.210;6.838;2023-03-14T05:57:37;1.63;;;0.30;;
27491;SDS011;14927;51.210;6.838;2023-03-14T06:00:22;1.40;;;0.20;;
27491;SDS011;14927;51.210;6.838;2023-03-14T06:03:07;1.15;;;0.40;;
27491;SDS011;14927;51.210;6.838;2023-03-14T06:05:52;1.73;;;0.43;;
27491;SDS011;14927;51.210;6.838;2023-03-14T06:08:36;1.08;;;0.40;;
27491;SDS011;14927;51.210;6.838;2023-03-14T06:11:21;1.30;;;0.52;;
27491;SDS011;14927;51.210;6.838;2023-03-14T06:14:06;1.13;;;0.40;;
27491;SDS011;14927;51.210;6.838;2023-03-14T06:16:51;1.23;;;0.40;;
27491;SDS011;14927;51.210;6.838;2023-03-14T06:19:36;0.43;;;0.40;;
27491;SDS011;14927;51.210;6.838;2023-03-14T06:22:21;0.50;;;0.30;;
27491;SDS011;14927;51.210;6.838;2023-03-14T06:25:06;0.70;;;0.47;;
27491;SDS011;14927;51.210;6.838;2023-03-14T06:27:51;1.35;;;0.60;;
27491;SDS011;14927;51.210;6.838;2023-03-14T06:30:36;1.30;;;0.60;;
27491;SDS011;14927;51.210;6.838;2023-03-14T06:33:21;1.40;;;0.65;;
27491;SDS011;14927;51.210;6.838;2023-03-14T06:36:06;0.57;;;0.40;;
27491;SDS011;14927;51.210;6.838;2023-03-14T06:38:51;1.15;;;0.50;;
27491;SDS011;14927;51.210;6.838;2023-03-14T06:41:36;2.13;;;0.80;;
27491;SDS011;14927;51.210;6.838;2023-03-14T06:44:21;0.50;;;0.30;;
27491;SDS011;14927;51.210;6.838;2023-03-14T06:47:05;0.47;;;0.40;;
27491;SDS011;14927;51.210;6.838;2023-03-14T06:49:50;1.05;;;0.40;;
27491;SDS011;14927;51.210;6.838;2023-03-14T06:52:35;1.08;;;0.60;;
27491;SDS011;14927;51.210;6.838;2023-03-14T06:55:21;1.20;;;0.57;;
27491;SDS011;14927;51.210;6.838;2023-03-14T06:58:06;1.15;;;0.60;;
27491;SDS011;14927;51.210;6.838;2023-03-14T07:00:52;2.67;;;0.60;;
27491;SDS011;14927;51.210;6.838;2023-03-14T07:03:38;1.70;;;0.55;;
27491;SDS011;14927;51.210;6.838;2023-03-14T07:06:24;1.70;;;0.60;;
27491;SDS011;14927;51.210;6.838;2023-03-14T07:09:10;0.63;;;0.50;;
27491;SDS011;14927;51.210;6.838;2023-03-14T07:12:03;1.15;;;0.50;;
27491;SDS011;14927;51.210;6.838;2023-03-14T07:14:49;0.60;;;0.30;;
27491;SDS011;14927;51.210;6.838;2023-03-14T07:17:34;0.17;;;0.10;;
27491;SDS011;14927;51.210;6.838;2023-03-14T07:20:19;2.50;;;0.20;;
27491;SDS011;14927;51.210;6.838;2023-03-14T07:23:04;0.90;;;0.13;;
27491;SDS011;14927;51.210;6.838;2023-03-14T07:25:50;0.10;;;0.10;;
27491;SDS011;14927;51.210;6.838;2023-03-14T07:28:38;0.10;;;0.10;;
27491;SDS011;14927;51.210;6.838;2023-03-14T07:31:23;0.35;;;0.25;;
27491;SDS011;14927;51.210;6.838;2023-03-14T07:34:08;0.10;;;0.10;;
27491;SDS011;14927;51.210;6.838;2023-03-14T07:36:53;0.10;;;0.10;;
27491;SDS011;14927;51.210;6.838;2023-03-14T07:39:38;0.25;;;0.10;;
27491;SDS011;14927;51.210;6.838;2023-03-14T07:42:23;0.10;;;0.10;;
27491;SDS011;14927;51.210;6.838;2023-03-14T07:45:09;0.35;;;0.30;;
27491;SDS011;14927;51.210;6.838;2023-03-14T07:47:56;1.00;;;0.30;;
27491;SDS011;14927;51.210;6.838;2023-03-14T07:50:41;0.10;;;0.10;;
27491;SDS011;14927;51.210;6.838;2023-03-14T07:53:26;0.47;;;0.10;;
27491;SDS011;14927;51.210;6.838;2023-03-14T07:56:12;0.10;;;0.10;;
27491;SDS011;14927;51.210;6.838;2023-03-14T07:58:57;0.52;;;0.28;;
27491;SDS011;14927;51.210;6.838;2023-03-14T08:01:42;1.40;;;0.40;;
27491;SDS011;14927;51.210;6.838;2023-03-14T08:04:27;0.95;;;0.32;;
27491;SDS011;14927;51.210;6.838;2023-03-14T08:07:12;2.28;;;0.65;;
27491;SDS011;14927;51.210;6.838;2023-03-14T08:09:58;0.45;;;0.40;;
27491;SDS011;14927;51.210;6.838;2023-03-14T08:12:47;0.90;;;0.30;;
27491;SDS011;14927;51.210;6.838;2023-03-14T08:27:29;0.60;;;0.20;;
27491;SDS011;14927;51.210;6.838;2023-03-14T08:30:45;0.40;;;0.20;;
27491;SDS011;14927;51.210;6.838;2023-03-14T08:33:44;1.98;;;0.30;;
27491;SDS011;14927;51.210;6.838;2023-03-14T11:43:20;2.97;;;0.68;;
27491;SDS011;14927;51.210;6.838;2023-03-14T12:00:00;2.38;;;0.68;;
27491;SDS011;14927;51.210;6.838;2023-03-14T12:30:28;5.47;;;1.20;;
27491;SDS011;14927;51.210;6.838;2023-03-14T12:36:11;4.88;;;1.40;;
27491;SDS011;14927;51.210;6.838;2023-03-14T13:09:49;4.70;;;1.00;;
27491;SDS011;14927;51.210;6.838;2023-03-14T13:12:49;3.13;;;0.88;;
27491;SDS011;14927;51.210;6.838;2023-03-14T13:15:41;5.28;;;1.23;;
27491;SDS011;14927;51.210;6.838;2023-03-14T13:18:42;5.88;;;1.17;;
27491;SDS011;14927;51.210;6.838;2023-03-14T13:21:42;5.70;;;1.45;;
27491;SDS011;14927;51.210;6.838;2023-03-14T13:24:38;6.85;;;1.38;;
27491;SDS011;14927;51.210;6.838;2023-03-14T13:27:23;15.30;;;2.50;;
27491;SDS011;14927;51.210;6.838;2023-03-14T13:36:05;25.52;;;5.65;;
27491;SDS011;14927;51.210;6.838;2023-03-14T13:38:59;14.10;;;2.92;;
27491;SDS011;14927;51.210;6.838;2023-03-14T13:44:37;15.55;;;3.63;;
27491;SDS011;14927;51.210;6.838;2023-03-14T13:47:27;12.07;;;2.20;;
27491;SDS011;14927;51.210;6.838;2023-03-14T13:50:26;10.15;;;3.00;;
27491;SDS011;14927;51.210;6.838;2023-03-14T13:53:27;14.85;;;2.42;;
27491;SDS011;14927;51.210;6.838;2023-03-14T14:04:38;13.57;;;3.00;;
27491;SDS011;14927;51.210;6.838;2023-03-14T14:10:14;16.05;;;3.65;;
27491;SDS011;14927;51.210;6.838;2023-03-14T14:13:13;15.73;;;2.75;;
27491;SDS011;14927;51.210;6.838;2023-03-14T14:16:10;16.00;;;3.17;;
27491;SDS011;14927;51.210;6.838;2023-03-14T14:21:49;14.73;;;2.85;;
27491;SDS011;14927;51.210;6.838;2023-03-14T14:24:44;16.70;;;3.08;;
27491;SDS011;14927;51.210;6.838;2023-03-14T14:27:36;21.08;;;4.15;;
27491;SDS011;14927;51.210;6.838;2023-03-14T14:30:33;18.40;;;3.50;;
27491;SDS011;14927;51.210;6.838;2023-03-14T15:08:34;11.77;;;1.58;;
27491;SDS011;14927;51.210;6.838;2023-03-14T15:11:26;9.52;;;2.10;;
27491;SDS011;14927;51.210;6.838;2023-03-14T15:14:22;8.05;;;1.85;;
27491;SDS011;14927;51.210;6.838;2023-03-14T15:17:10;11.63;;;2.42;;
27491;SDS011;14927;51.210;6.838;2023-03-14T15:20:06;7.90;;;1.42;;
27491;SDS011;14927;51.210;6.838;2023-03-14T15:23:17;10.05;;;1.90;;
27491;SDS011;14927;51.210;6.838;2023-03-14T15:26:11;9.70;;;1.90;;
27491;SDS011;14927;51.210;6.838;2023-03-14T15:44:52;4.28;;;1.17;;
27491;SDS011;14927;51.210;6.838;2023-03-14T15:47:37;7.70;;;1.83;;
27491;SDS011;14927;51.210;6.838;2023-03-14T15:50:22;12.15;;;1.60;;
27491;SDS011;14927;51.210;6.838;2023-03-14T15:53:09;6.63;;;1.60;;
27491;SDS011;14927;51.210;6.838;2023-03-14T15:55:55;10.10;;;1.80;;
27491;SDS011;14927;51.210;6.838;2023-03-14T15:58:39;11.70;;;2.33;;
27491;SDS011;14927;51.210;6.838;2023-03-14T16:01:25;9.25;;;1.70;;
27491;SDS011;14927;51.210;6.838;2023-03-14T16:04:10;9.23;;;1.70;;
27491;SDS011;14927;51.210;6.838;2023-03-14T16:06:55;7.82;;;1.63;;
27491;SDS011;14927;51.210;6.838;2023-03-14T16:09:39;11.48;;;1.52;;
27491;SDS011;14927;51.210;6.838;2023-03-14T16:12:24;10.18;;;1.60;;
27491;SDS011;14927;51.210;6.838;2023-03-14T16:15:09;10.27;;;1.85;;
27491;SDS011;14927;51.210;6.838;2023-03-14T16:17:55;6.43;;;1.40;;
27491;SDS011;14927;51.210;6.838;2023-03-14T16:20:40;6.82;;;1.60;;
27491;SDS011;14927;51.210;6.838;2023-03-14T16:23:25;8.02;;;1.52;;
27491;SDS011;14927;51.210;6.838;2023-03-14T16:26:17;9.35;;;1.40;;
27491;SDS011;14927;51.210;6.838;2023-03-14T16:29:03;6.25;;;1.42;;
27491;SDS011;14927;51.210;6.838;2023-03-14T16:31:49;5.18;;;1.23;;
27491;SDS011;14927;51.210;6.838;2023-03-14T16:34:36;6.03;;;1.15;;
27491;SDS011;14927;51.210;6.838;2023-03-14T16:37:25;10.40;;;1.33;;
27491;SDS011;14927;51.210;6.838;2023-03-14T16:40:14;5.55;;;1.23;;
27491;SDS011;14927;51.210;6.838;2023-03-14T16:43:00;4.70;;;1.40;;
27491;SDS011;14927;51.210;6.838;2023-03-14T16:45:48;4.85;;;1.00;;
27491;SDS011;14927;51.210;6.838;2023-03-14T16:48:33;5.88;;;1.15;;
27491;SDS011;14927;51.210;6.838;2023-03-14T16:51:22;6.68;;;1.38;;
27491;SDS011;14927;51.210;6.838;2023-03-14T16:54:07;7.35;;;1.42;;
27491;SDS011;14927;51.210;6.838;2023-03-14T16:56:52;6.82;;;1.42;;
27491;SDS011;14927;51.210;6.838;2023-03-14T16:59:38;10.93;;;1.80;;
27491;SDS011;14927;51.210;6.838;2023-03-14T17:02:23;8.88;;;1.92;;
27491;SDS011;14927;51.210;6.838;2023-03-14T17:05:08;4.90;;;1.50;;
27491;SDS011;14927;51.210;6.838;2023-03-14T17:07:56;9.95;;;1.90;;
27491;SDS011;14927;51.210;6.838;2023-03-14T17:10:43;7.05;;;1.90;;
27491;SDS011;14927;51.210;6.838;2023-03-14T17:13:29;9.55;;;1.65;;
27491;SDS011;14927;51.210;6.838;2023-03-14T17:16:19;7.30;;;2.45;;
27491;SDS011;14927;51.210;6.838;2023-03-14T17:19:21;8.60;;;2.15;;
27491;SDS011;14927;51.210;6.838;2023-03-14T17:22:07;7.03;;;1.83;;
27491;SDS011;14927;51.210;6.838;2023-03-14T17:24:52;10.75;;;2.70;;
27491;SDS011;14927;51.210;6.838;2023-03-14T17:27:37;10.30;;;2.33;;
27491;SDS011;14927;51.210;6.838;2023-03-14T17:30:21;8.00;;;1.90;;
27491;SDS011;14927;51.210;6.838;2023-03-14T17:33:06;10.18;;;2.40;;
27491;SDS011;14927;51.210;6.838;2023-03-14T17:35:51;10.43;;;1.70;;
27491;SDS011;14927;51.210;6.838;2023-03-14T17:38:37;10.70;;;2.92;;
27491;SDS011;14927;51.210;6.838;2023-03-14T17:41:22;14.05;;;2.47;;
27491;SDS011;14927;51.210;6.838;2023-03-14T17:44:07;10.52;;;3.05;;
27491;SDS011;14927;51.210;6.838;2023-03-14T17:46:53;21.77;;;6.85;;
27491;SDS011;14927;51.210;6.838;2023-03-14T17:49:38;14.50;;;3.92;;
27491;SDS011;14927;51.210;6.838;2023-03-14T17:52:24;17.60;;;6.40;;
27491;SDS011;14927;51.210;6.838;2023-03-14T17:55:09;14.63;;;4.93;;
27491;SDS011;14927;51.210;6.838;2023-03-14T17:57:54;11.00;;;3.28;;
27491;SDS011;14927;51.210;6.838;2023-03-14T18:00:39;9.10;;;2.28;;
27491;SDS011;14927;51.210;6.838;2023-03-14T18:03:24;6.28;;;1.38;;
27491;SDS011;14927;51.210;6.838;2023-03-14T18:06:09;10.02;;;1.90;;
27491;SDS011;14927;51.210;6.838;2023-03-14T18:08:56;9.30;;;1.77;;
27491;SDS011;14927;51.210;6.838;2023-03-14T18:11:43;7.68;;;1.95;;
27491;SDS011;14927;51.210;6.838;2023-03-14T18:14:28;9.70;;;2.40;;
27491;SDS011;14927;51.210;6.838;2023-03-14T18:17:13;9.77;;;2.20;;
27491;SDS011;14927;51.210;6.838;2023-03-14T18:19:58;8.15;;;1.70;;
27491;SDS011;14927;51.210;6.838;2023-03-14T18:28:13;6.25;;;1.75;;
27491;SDS011;14927;51.210;6.838;2023-03-14T18:31:05;6.72;;;1.70;;
27491;SDS011;14927;51.210;6.838;2023-03-14T18:33:51;12.68;;;2.20;;
27491;SDS011;14927;51.210;6.838;2023-03-14T18:36:40;10.23;;;2.17;;
27491;SDS011;14927;51.210;6.838;2023-03-14T18:39:25;12.77;;;2.05;;
27491;SDS011;14927;51.210;6.838;2023-03-14T18:42:10;10.15;;;2.13;;
27491;SDS011;14927;51.210;6.838;2023-03-14T18:44:55;8.43;;;2.05;;
27491;SDS011;14927;51.210;6.838;2023-03-14T18:47:39;7.35;;;1.88;;
27491;SDS011;14927;51.210;6.838;2023-03-14T18:50:24;9.02;;;1.67;;
27491;SDS011;14927;51.210;6.838;2023-03-14T18:53:09;16.88;;;2.35;;
27491;SDS011;14927;51.210;6.838;2023-03-14T18:55:54;9.95;;;1.95;;
27491;SDS011;14927;51.210;6.838;2023-03-14T18:58:39;9.85;;;1.90;;
27491;SDS011;14927;51.210;6.838;2023-03-14T19:01:24;14.20;;;1.80;;
27491;SDS011;14927;51.210;6.838;2023-03-14T19:04:14;9.93;;;2.27;;
27491;SDS011;14927;51.210;6.838;2023-03-14T19:06:58;7.70;;;1.67;;
27491;SDS011;14927;51.210;6.838;2023-03-14T19:09:44;9.65;;;2.08;;
27491;SDS011;14927;51.210;6.838;2023-03-14T19:12:29;12.85;;;2.72;;
27491;SDS011;14927;51.210;6.838;2023-03-14T19:15:14;9.30;;;2.00;;
27491;SDS011;14927;51.210;6.838;2023-03-14T19:17:58;6.20;;;1.65;;
27491;SDS011;14927;51.210;6.838;2023-03-14T19:20:43;12.02;;;2.17;;
27491;SDS011;14927;51.210;6.838;2023-03-14T19:23:41;7.85;;;1.73;;
27491;SDS011;14927;51.210;6.838;2023-03-14T19:26:29;11.18;;;2.35;;
27491;SDS011;14927;51.210;6.838;2023-03-14T19:29:15;9.75;;;2.30;;
27491;SDS011;14927;51.210;6.838;2023-03-14T19:32:00;13.23;;;2.85;;
27491;SDS011;14927;51.210;6.838;2023-03-14T19:34:44;10.00;;;2.30;;
27491;SDS011;14927;51.210;6.838;2023-03-14T19:37:29;9.95;;;2.05;;
27491;SDS011;14927;51.210;6.838;2023-03-14T19:40:14;13.35;;;2.53;;
27491;SDS011;14927;51.210;6.838;2023-03-14T19:43:00;13.82;;;2.85;;
27491;SDS011;14927;51.210;6.838;2023-03-14T19:45:45;10.27;;;2.47;;
27491;SDS011;14927;51.210;6.838;2023-03-14T19:48:30;10.50;;;2.38;;
27491;SDS011;14927;51.210;6.838;2023-03-14T19:51:15;18.25;;;2.70;;
27491;SDS011;14927;51.210;6.838;2023-03-14T19:54:00;10.52;;;2.33;;
27491;SDS011;14927;51.210;6.838;2023-03-14T19:56:48;9.32;;;2.33;;
27491;SDS011;14927;51.210;6.838;2023-03-14T19:59:33;11.07;;;2.38;;
27491;SDS011;14927;51.210;6.838;2023-03-14T20:02:18;13.70;;;2.55;;
27491;SDS011;14927;51.210;6.838;2023-03-14T20:05:03;9.82;;;2.03;;
27491;SDS011;14927;51.210;6.838;2023-03-14T20:07:48;7.88;;;1.92;;
27491;SDS011;14927;51.210;6.838;2023-03-14T20:10:34;11.43;;;2.47;;
27491;SDS011;14927;51.210;6.838;2023-03-14T20:13:23;10.25;;;2.25;;
27491;SDS011;14927;51.210;6.838;2023-03-14T20:16:09;14.93;;;2.35;;
27491;SDS011;14927;51.210;6.838;2023-03-14T20:18:55;9.57;;;2.05;;
27491;SDS011;14927;51.210;6.838;2023-03-14T20:21:40;7.15;;;1.77;;
27491;SDS011;14927;51.210;6.838;2023-03-14T20:24:25;15.35;;;2.33;;
27491;SDS011;14927;51.210;6.838;2023-03-14T20:27:10;8.52;;;1.55;;
27491;SDS011;14927;51.210;6.838;2023-03-14T20:29:56;15.23;;;2.90;;
27491;SDS011;14927;51.210;6.838;2023-03-14T20:32:41;15.27;;;2.03;;
27491;SDS011;14927;51.210;6.838;2023-03-14T20:35:26;18.02;;;2.72;;
27491;SDS011;14927;51.210;6.838;2023-03-14T20:38:10;10.30;;;2.08;;
27491;SDS011;14927;51.210;6.838;2023-03-14T20:40:56;12.60;;;2.22;;
27491;SDS011;14927;51.210;6.838;2023-03-14T20:43:42;14.80;;;2.00;;
27491;SDS011;14927;51.210;6.838;2023-03-14T20:46:27;8.57;;;2.00;;
27491;SDS011;14927;51.210;6.838;2023-03-14T20:49:11;11.50;;;1.80;;
27491;SDS011;14927;51.210;6.838;2023-03-14T20:51:57;13.27;;;2.45;;
27491;SDS011;14927;51.210;6.838;2023-03-14T20:54:41;10.98;;;1.98;;
27491;SDS011;14927;51.210;6.838;2023-03-14T20:57:26;9.90;;;2.03;;
27491;SDS011;14927;51.210;6.838;2023-03-14T21:00:11;9.98;;;2.13;;
27491;SDS011;14927;51.210;6.838;2023-03-14T21:02:59;10.02;;;2.22;;
27491;SDS011;14927;51.210;6.838;2023-03-14T21:05:44;10.35;;;2.22;;
27491;SDS011;14927;51.210;6.838;2023-03-14T21:08:31;8.75;;;2.10;;
27491;SDS011;14927;51.210;6.838;2023-03-14T21:11:19;13.60;;;2.83;;
27491;SDS011;14927;51.210;6.838;2023-03-14T21:16:50;12.07;;;2.17;;
27491;SDS011;14927;51.210;6.838;2023-03-14T21:31:48;15.45;;;3.05;;
27491;SDS011;14927;51.210;6.838;2023-03-14T21:34:38;13.63;;;2.58;;
27491;SDS011;14927;51.210;6.838;2023-03-14T21:44:09;14.10;;;2.97;;
27491;SDS011;14927;51.210;6.838;2023-03-14T21:47:09;17.23;;;2.45;;
27491;SDS011;14927;51.210;6.838;2023-03-14T21:49:54;9.43;;;2.40;;
27491;SDS011;14927;51.210;6.838;2023-03-14T21:52:40;16.55;;;2.30;;
27491;SDS011;14927;51.210;6.838;2023-03-14T21:55:29;11.77;;;2.72;;
27491;SDS011;14927;51.210;6.838;2023-03-14T21:58:13;13.38;;;2.55;;
27491;SDS011;14927;51.210;6.838;2023-03-14T22:01:02;9.07;;;2.53;;
27491;SDS011;14927;51.210;6.838;2023-03-14T22:03:49;12.23;;;2.65;;
27491;SDS011;14927;51.210;6.838;2023-03-14T22:06:36;11.93;;;2.80;;
27491;SDS011;14927;51.210;6.838;2023-03-14T22:09:34;17.48;;;3.55;;
27491;SDS011;14927;51.210;6.838;2023-03-14T22:12:24;12.90;;;3.20;;
27491;SDS011;14927;51.210;6.838;2023-03-14T22:15:18;13.38;;;3.17;;
27491;SDS011;14927;51.210;6.838;2023-03-14T22:18:24;10.50;;;2.80;;
27491;SDS011;14927;51.210;6.838;2023-03-14T22:21:09;10.98;;;2.70;;
27491;SDS011;14927;51.210;6.838;2023-03-14T22:24:00;17.17;;;2.50;;
27491;SDS011;14927;51.210;6.838;2023-03-14T22:32:06;12.90;;;2.42;;
27491;SDS011;14927;51.210;6.838;2023-03-14T22:35:09;16.08;;;2.85;;
27491;SDS011;14927;51.210;6.838;2023-03-14T22:37:58;11.98;;;2.90;;
27491;SDS011;14927;51.210;6.838;2023-03-14T22:40:45;18.00;;;3.00;;
27491;SDS011;14927;51.210;6.838;2023-03-14T22:43:34;12.82;;;2.45;;
27491;SDS011;14927;51.210;6.838;2023-03-14T22:46:24;19.73;;;2.90;;
27491;SDS011;14927;51.210;6.838;2023-03-14T22:51:54;16.70;;;2.42;;
27491;SDS011;14927;51.210;6.838;2023-03-14T22:54:38;13.60;;;2.38;;
27491;SDS011;14927;51.210;6.838;2023-03-14T22:57:25;12.65;;;2.70;;
27491;SDS011;14927;51.210;6.838;2023-03-14T23:00:11;14.20;;;2.60;;
27491;SDS011;14927;51.210;6.838;2023-03-14T23:02:59;15.10;;;2.53;;
27491;SDS011;14927;51.210;6.838;2023-03-14T23:05:48;9.82;;;2.22;;
27491;SDS011;14927;51.210;6.838;2023-03-14T23:08:49;10.57;;;2.55;;